Time;durP1;ratioP1;P1;durP2;ratioP2;P2;SDS_P1;SDS_P2;PMS_P1;PMS_P2;Temp;Humidity;BMP_temperature;BMP_pressure;BME280_temperature;BME280_humidity;BME280_pressure;Samples;Min_cycle;Max_cycle;Signal;HPM_P1;HPM_P2
2022/03/05 00:02:13;;;;;;;18.57;9.53;;;3.40;99.30;;;;;;5024013;28;20177;-69
2022/03/05 00:04:39;;;;;;;19.43;9.77;;;3.40;98.60;;;;;;5017642;28;20208;-69
2022/03/05 00:07:04;;;;;;;22.80;11.30;;;3.30;98.80;;;;;;5015928;28;20455;-69
2022/03/05 00:09:30;;;;;;;18.23;10.67;;;3.30;98.80;;;;;;5016534;28;20221;-68
2022/03/05 00:11:55;;;;;;;19.83;10.90;;;3.20;98.70;;;;;;5016015;28;20256;-69
2022/03/05 00:14:21;;;;;;;17.30;9.60;;;3.10;99.00;;;;;;5017078;28;20197;-69
2022/03/05 00:16:46;;;;;;;20.30;10.70;;;3.00;99.20;;;;;;5016587;28;20172;-69
2022/03/05 00:19:12;;;;;;;19.17;10.80;;;3.10;99.40;;;;;;5016448;28;20200;-68
2022/03/05 00:21:37;;;;;;;21.73;11.00;;;3.10;99.20;;;;;;5016342;28;20595;-69
2022/03/05 00:24:03;;;;;;;19.27;11.10;;;3.10;99.20;;;;;;5016784;28;20209;-70
2022/03/05 00:26:28;;;;;;;17.43;10.47;;;3.20;99.20;;;;;;5017171;28;20233;-69
2022/03/05 00:28:54;;;;;;;18.57;11.00;;;3.00;99.50;;;;;;5016337;28;20226;-67
2022/03/05 00:31:19;;;;;;;23.07;12.00;;;2.90;99.90;;;;;;5016933;28;20172;-69
2022/03/05 00:33:45;;;;;;;22.67;12.00;;;2.90;99.90;;;;;;5016458;28;20180;-68
2022/03/05 00:36:10;;;;;;;23.83;11.53;;;2.90;99.90;;;;;;5015817;28;20644;-67
2022/03/05 00:38:36;;;;;;;22.87;12.13;;;2.90;99.90;;;;;;5015019;28;20212;-68
2022/03/05 00:41:01;;;;;;;21.50;11.33;;;2.90;99.90;;;;;;5015230;28;20254;-69
2022/03/05 00:43:27;;;;;;;24.73;12.97;;;2.80;99.90;;;;;;5015202;28;20175;-68
2022/03/05 00:45:52;;;;;;;21.67;11.57;;;2.70;99.90;;;;;;5015240;28;20177;-69
2022/03/05 00:48:18;;;;;;;22.03;11.87;;;2.70;99.90;;;;;;5015203;28;20294;-68
2022/03/05 00:50:44;;;;;;;22.87;11.63;;;2.80;99.90;;;;;;4998090;28;20175;-69
2022/03/05 00:53:11;;;;;;;28.30;11.97;;;2.70;99.90;;;;;;5014787;28;20406;-69
2022/03/05 00:55:37;;;;;;;27.43;13.53;;;2.60;99.90;;;;;;5015380;28;20175;-68
2022/03/05 00:58:03;;;;;;;25.90;14.27;;;2.60;99.90;;;;;;5015351;28;20421;-67
2022/03/05 01:00:29;;;;;;;26.20;14.00;;;2.60;99.90;;;;;;5015238;28;20413;-69
2022/03/05 01:02:54;;;;;;;28.90;13.87;;;2.60;99.90;;;;;;5014926;28;20179;-67
2022/03/05 01:05:20;;;;;;;28.87;13.63;;;2.50;99.90;;;;;;5015056;28;20710;-67
2022/03/05 01:07:45;;;;;;;34.27;14.03;;;2.50;99.90;;;;;;5015882;28;20233;-68
2022/03/05 01:10:11;;;;;;;30.13;14.57;;;2.40;99.90;;;;;;5016214;28;20283;-68
2022/03/05 01:12:36;;;;;;;24.90;13.70;;;2.40;99.90;;;;;;5014458;28;20180;-68
2022/03/05 01:15:04;;;;;;;23.80;14.30;;;2.40;99.90;;;;;;5015003;28;20174;-68
2022/03/05 01:17:30;;;;;;;32.33;14.47;;;2.40;99.90;;;;;;5014475;28;20194;-68
2022/03/05 01:19:56;;;;;;;29.30;13.67;;;2.30;99.90;;;;;;5014368;28;20431;-67
2022/03/05 01:22:21;;;;;;;25.97;13.93;;;2.30;99.90;;;;;;5014649;28;20183;-69
2022/03/05 01:24:47;;;;;;;30.07;16.10;;;2.40;99.90;;;;;;5015187;28;20586;-70
2022/03/05 01:27:12;;;;;;;33.70;15.20;;;2.40;99.90;;;;;;4999020;28;20193;-68
2022/03/05 01:29:38;;;;;;;33.33;15.50;;;2.30;99.90;;;;;;5014778;28;20563;-67
2022/03/05 01:32:04;;;;;;;32.00;14.40;;;2.40;99.90;;;;;;5014686;28;20184;-67
2022/03/05 01:34:29;;;;;;;29.70;14.87;;;2.30;99.90;;;;;;5014599;28;20184;-67
2022/03/05 01:36:55;;;;;;;28.77;14.37;;;2.30;99.90;;;;;;5014583;28;20438;-67
2022/03/05 01:39:21;;;;;;;30.83;14.87;;;2.30;99.90;;;;;;5013838;28;20268;-67
2022/03/05 01:41:48;;;;;;;31.10;15.33;;;2.40;99.90;;;;;;5014175;28;20294;-68
2022/03/05 01:44:14;;;;;;;29.50;14.63;;;2.40;99.90;;;;;;5014866;28;20171;-68
2022/03/05 01:46:40;;;;;;;33.23;16.07;;;2.50;99.90;;;;;;4997075;28;20501;-68
2022/03/05 01:49:09;;;;;;;26.60;14.07;;;2.60;99.90;;;;;;5014545;28;21089;-68
2022/03/05 01:51:35;;;;;;;28.47;13.13;;;2.70;99.90;;;;;;5013823;28;20176;-68
2022/03/05 01:54:01;;;;;;;29.00;14.10;;;2.70;99.90;;;;;;5014626;28;20759;-68
2022/03/05 01:56:28;;;;;;;29.40;13.27;;;2.70;99.90;;;;;;5013797;28;20414;-67
2022/03/05 01:58:54;;;;;;;30.77;16.33;;;2.70;99.90;;;;;;5014024;28;20526;-68
2022/03/05 02:01:24;;;;;;;30.93;14.10;;;2.70;99.90;;;;;;5014493;28;20407;-68
2022/03/05 02:03:51;;;;;;;31.53;15.13;;;2.70;99.90;;;;;;5013874;28;20441;-69
2022/03/05 02:06:17;;;;;;;27.50;14.83;;;2.60;99.90;;;;;;5014363;28;20403;-67
2022/03/05 02:08:43;;;;;;;29.03;15.30;;;2.60;99.90;;;;;;5014122;28;20463;-69
2022/03/05 02:11:08;;;;;;;28.77;13.90;;;2.60;99.90;;;;;;5015203;28;20416;-69
2022/03/05 02:13:36;;;;;;;29.70;13.93;;;2.50;99.90;;;;;;5014651;28;20432;-68
2022/03/05 02:16:02;;;;;;;32.70;14.13;;;2.40;99.90;;;;;;4996779;28;20175;-69
2022/03/05 02:18:28;;;;;;;33.27;15.77;;;2.40;99.90;;;;;;5014625;28;20472;-69
2022/03/05 02:20:54;;;;;;;31.50;14.60;;;2.40;99.90;;;;;;5014646;28;20419;-69
2022/03/05 02:23:19;;;;;;;31.50;14.60;;;2.40;99.90;;;;;;5013872;28;20179;-70
2022/03/05 02:25:55;;;;;;;29.87;15.80;;;2.40;99.90;;;;;;5015065;28;20513;-69
2022/03/05 02:28:22;;;;;;;30.57;14.43;;;2.40;99.90;;;;;;5015650;28;20273;-68
2022/03/05 02:30:48;;;;;;;28.33;14.07;;;2.40;99.90;;;;;;5015448;28;20454;-68
2022/03/05 02:33:14;;;;;;;29.10;15.00;;;2.40;99.90;;;;;;5014600;28;20793;-68
2022/03/05 02:35:43;;;;;;;33.60;14.27;;;2.40;99.90;;;;;;5014640;28;20413;-68
2022/03/05 02:38:09;;;;;;;33.13;15.57;;;2.30;99.90;;;;;;5013652;28;20414;-68
2022/03/05 02:40:35;;;;;;;24.30;12.70;;;2.40;99.90;;;;;;5014303;28;20894;-67
2022/03/05 02:43:00;;;;;;;28.83;15.00;;;2.30;99.90;;;;;;4997880;28;20423;-68
2022/03/05 02:45:26;;;;;;;28.83;15.50;;;2.30;99.90;;;;;;5014705;28;20227;-68
2022/03/05 02:47:51;;;;;;;29.63;14.57;;;2.30;99.90;;;;;;5013888;28;20193;-68
2022/03/05 02:50:17;;;;;;;26.20;12.80;;;2.30;99.90;;;;;;5016422;28;20243;-67
2022/03/05 02:52:42;;;;;;;29.77;14.37;;;2.20;99.90;;;;;;5017633;28;20176;-68
2022/03/05 02:55:08;;;;;;;23.80;14.17;;;2.30;99.90;;;;;;5017932;28;20172;-69
2022/03/05 02:57:34;;;;;;;27.10;14.23;;;2.30;99.90;;;;;;5018337;28;20539;-68
2022/03/05 02:59:59;;;;;;;31.30;15.43;;;2.30;99.90;;;;;;5017691;28;20207;-68
2022/03/05 03:02:26;;;;;;;27.27;13.20;;;2.30;99.90;;;;;;5017644;28;20180;-68
2022/03/05 03:04:52;;;;;;;27.00;13.90;;;2.40;99.90;;;;;;5017753;28;20593;-67
2022/03/05 03:07:17;;;;;;;30.13;15.03;;;2.40;99.90;;;;;;5017485;28;20414;-68
2022/03/05 03:09:43;;;;;;;27.73;14.83;;;2.40;99.90;;;;;;5017669;28;20196;-68
2022/03/05 03:12:09;;;;;;;35.10;16.43;;;2.40;99.90;;;;;;5017570;28;20547;-71
2022/03/05 03:14:34;;;;;;;30.63;13.60;;;2.30;99.90;;;;;;5017620;28;20201;-68
2022/03/05 03:17:00;;;;;;;30.33;15.17;;;2.20;99.90;;;;;;5017748;28;20414;-68
2022/03/05 03:19:25;;;;;;;30.53;14.20;;;2.10;99.90;;;;;;5017234;28;20214;-69
2022/03/05 03:21:51;;;;;;;27.90;14.70;;;2.10;99.90;;;;;;5017348;28;20167;-69
2022/03/05 03:24:16;;;;;;;34.47;15.30;;;2.10;99.90;;;;;;5019466;28;20176;-68
2022/03/05 03:26:44;;;;;;;25.20;14.57;;;2.00;99.90;;;;;;5017648;28;20179;-69
2022/03/05 03:29:10;;;;;;;29.97;14.13;;;1.90;99.90;;;;;;4999105;28;20272;-69
2022/03/05 03:31:35;;;;;;;32.57;14.17;;;1.80;99.90;;;;;;5017058;28;20422;-68
2022/03/05 03:34:01;;;;;;;36.20;15.63;;;1.80;99.90;;;;;;5017169;28;20704;-69
2022/03/05 03:36:26;;;;;;;28.70;15.03;;;1.70;99.90;;;;;;5016760;28;20176;-68
2022/03/05 03:38:52;;;;;;;28.10;13.90;;;1.70;99.90;;;;;;5016697;28;20241;-69
2022/03/05 03:41:17;;;;;;;33.33;14.50;;;1.70;99.90;;;;;;5016705;28;20544;-69
2022/03/05 03:43:43;;;;;;;22.97;12.00;;;1.80;99.90;;;;;;5016669;28;20175;-69
2022/03/05 03:46:09;;;;;;;35.60;15.47;;;1.80;99.90;;;;;;5017167;28;20183;-68
2022/03/05 03:48:34;;;;;;;30.50;14.53;;;1.70;99.90;;;;;;5017282;28;20580;-68
2022/03/05 03:51:00;;;;;;;26.23;12.47;;;1.70;99.90;;;;;;5016370;28;20183;-67
2022/03/05 03:53:25;;;;;;;29.83;13.43;;;1.60;99.90;;;;;;5017810;28;20288;-67
2022/03/05 03:55:51;;;;;;;27.97;16.10;;;1.60;99.90;;;;;;5025078;28;20179;-68
2022/03/05 03:58:16;;;;;;;25.97;14.30;;;1.70;99.90;;;;;;5018473;28;20195;-68
2022/03/05 04:00:42;;;;;;;28.63;13.83;;;1.60;99.90;;;;;;5018027;28;20267;-67
2022/03/05 04:03:08;;;;;;;25.77;14.43;;;1.60;99.90;;;;;;4999946;28;20206;-68
2022/03/05 04:05:34;;;;;;;25.73;12.90;;;1.60;99.90;;;;;;5017193;28;20183;-67
2022/03/05 04:10:43;;;;;;;31.50;14.47;;;1.50;99.90;;;;;;5017413;28;20171;-69
2022/03/05 04:13:09;;;;;;;28.80;14.40;;;1.60;99.90;;;;;;5017028;28;20414;-69
2022/03/05 04:15:34;;;;;;;25.10;12.83;;;1.50;99.90;;;;;;5017726;28;20176;-69
2022/03/05 04:18:00;;;;;;;24.00;14.03;;;1.50;99.90;;;;;;5015770;28;20225;-68
2022/03/05 04:20:25;;;;;;;29.70;12.77;;;1.50;99.90;;;;;;5015953;28;20648;-69
2022/03/05 04:22:51;;;;;;;31.90;15.97;;;1.50;99.90;;;;;;5016141;28;20656;-69
2022/03/05 04:25:16;;;;;;;25.70;14.03;;;1.60;99.90;;;;;;5016268;28;20496;-69
2022/03/05 04:27:42;;;;;;;25.77;13.37;;;1.60;99.90;;;;;;4998055;28;20199;-69
2022/03/05 04:30:09;;;;;;;25.47;13.90;;;1.60;99.90;;;;;;5015730;28;20191;-70
2022/03/05 04:32:35;;;;;;;29.90;15.90;;;1.60;99.90;;;;;;5017288;28;20191;-69
2022/03/05 04:35:00;;;;;;;30.07;15.80;;;1.60;99.90;;;;;;5016841;28;20809;-68
2022/03/05 04:37:26;;;;;;;28.87;14.63;;;1.60;99.90;;;;;;5015740;28;20172;-69
2022/03/05 04:39:52;;;;;;;28.20;13.80;;;1.70;99.90;;;;;;5032313;22;20261;-70
2022/03/05 04:42:17;;;;;;;30.67;13.77;;;1.60;99.90;;;;;;5030491;28;20188;-70
2022/03/05 04:44:43;;;;;;;26.00;14.27;;;1.70;99.90;;;;;;5020556;28;20726;-69
2022/03/05 04:47:08;;;;;;;29.83;15.00;;;1.60;99.90;;;;;;5020122;28;20171;-69
2022/03/05 04:49:34;;;;;;;24.17;13.43;;;1.60;99.90;;;;;;5019150;28;20223;-69
2022/03/05 04:51:59;;;;;;;27.50;14.30;;;1.70;99.90;;;;;;5018003;28;20168;-69
2022/03/05 04:54:29;;;;;;;28.40;15.00;;;1.60;99.90;;;;;;5018788;28;20179;-69
2022/03/05 04:56:55;;;;;;;23.53;12.80;;;1.60;99.90;;;;;;5019292;28;20159;-69
2022/03/05 04:59:21;;;;;;;25.10;13.07;;;1.70;99.90;;;;;;5019219;28;20470;-69
2022/03/05 05:01:46;;;;;;;31.47;16.33;;;1.70;99.90;;;;;;5018561;28;20415;-69
2022/03/05 05:04:12;;;;;;;27.80;14.77;;;1.60;99.90;;;;;;5018891;28;20626;-70
2022/03/05 05:06:37;;;;;;;29.60;14.83;;;1.60;99.90;;;;;;5018522;28;20184;-69
2022/03/05 05:09:03;;;;;;;25.10;13.87;;;1.50;99.90;;;;;;5018745;28;20776;-69
2022/03/05 05:11:28;;;;;;;24.00;14.80;;;1.60;99.90;;;;;;5018859;28;20727;-71
2022/03/05 05:13:54;;;;;;;28.90;15.20;;;1.60;99.90;;;;;;5016857;28;20175;-70
2022/03/05 05:16:19;;;;;;;28.57;14.07;;;1.60;99.90;;;;;;5018461;28;20553;-70
2022/03/05 05:21:29;;;;;;;23.30;12.40;;;1.60;99.90;;;;;;5018468;28;20210;-70
2022/03/05 05:23:54;;;;;;;25.47;14.80;;;1.70;99.90;;;;;;5000873;28;20806;-69
2022/03/05 05:26:20;;;;;;;24.20;14.40;;;1.60;99.90;;;;;;5018290;28;20187;-70
2022/03/05 05:28:46;;;;;;;27.80;14.13;;;1.60;99.90;;;;;;5018558;28;20372;-69
2022/03/05 05:31:11;;;;;;;29.53;15.43;;;1.60;99.90;;;;;;5019135;28;20200;-70
2022/03/05 05:33:39;;;;;;;23.97;12.93;;;1.60;99.90;;;;;;5018056;28;20199;-69
2022/03/05 05:36:05;;;;;;;25.00;14.40;;;1.60;99.90;;;;;;5018394;28;20498;-69
2022/03/05 05:38:31;;;;;;;21.13;11.60;;;1.60;99.90;;;;;;5018318;28;20502;-70
2022/03/05 05:40:56;;;;;;;26.87;13.73;;;1.50;99.90;;;;;;5018414;28;20350;-70
2022/03/05 05:43:22;;;;;;;23.93;14.43;;;1.50;99.90;;;;;;5018266;28;20421;-70
2022/03/05 05:45:47;;;;;;;23.10;13.77;;;1.60;99.90;;;;;;5018954;28;20176;-70
2022/03/05 05:48:13;;;;;;;29.37;14.57;;;1.60;99.90;;;;;;4999478;28;20199;-69
2022/03/05 05:50:40;;;;;;;26.33;13.00;;;1.60;99.90;;;;;;5018366;28;20196;-69
2022/03/05 05:53:06;;;;;;;25.27;13.13;;;1.60;99.90;;;;;;5019102;28;20161;-70
2022/03/05 05:55:31;;;;;;;27.70;15.23;;;1.70;99.90;;;;;;5019117;28;20463;-70
2022/03/05 05:57:56;;;;;;;27.77;13.10;;;1.70;99.90;;;;;;5022013;28;20684;-69
2022/03/05 06:00:22;;;;;;;24.90;14.00;;;1.70;99.90;;;;;;5016409;28;20226;-68
2022/03/05 06:02:48;;;;;;;24.47;13.90;;;1.60;99.90;;;;;;5033162;28;20179;-71
2022/03/05 06:05:13;;;;;;;23.73;13.67;;;1.60;99.90;;;;;;5033848;28;20255;-70
2022/03/05 06:07:40;;;;;;;25.13;13.77;;;1.70;99.90;;;;;;5034287;28;20286;-70
2022/03/05 06:10:07;;;;;;;28.70;14.47;;;1.70;99.90;;;;;;5035527;28;20450;-69
2022/03/05 06:12:32;;;;;;;28.70;13.40;;;1.70;99.90;;;;;;5020222;28;20183;-70
2022/03/05 06:14:58;;;;;;;26.63;14.00;;;1.80;99.90;;;;;;5017981;28;20425;-70
2022/03/05 06:17:23;;;;;;;24.63;13.80;;;1.70;99.90;;;;;;5018710;28;20180;-70
2022/03/05 06:19:49;;;;;;;23.93;14.20;;;1.70;99.90;;;;;;5001310;28;20660;-71
2022/03/05 06:22:14;;;;;;;24.03;12.93;;;1.80;99.90;;;;;;5017485;28;20600;-71
2022/03/05 06:24:40;;;;;;;24.67;13.47;;;1.80;99.90;;;;;;5018876;28;20204;-70
2022/03/05 06:27:05;;;;;;;25.27;12.13;;;1.90;99.90;;;;;;5020841;28;20184;-70
2022/03/05 06:29:31;;;;;;;21.63;12.07;;;1.90;99.90;;;;;;5020620;28;20215;-70
2022/03/05 06:31:58;;;;;;;25.43;12.50;;;1.90;99.90;;;;;;5021862;28;20175;-69
2022/03/05 06:34:27;;;;;;;23.50;14.20;;;1.80;99.90;;;;;;5021985;28;20571;-70
2022/03/05 06:36:52;;;;;;;24.87;12.83;;;1.80;99.90;;;;;;5020469;28;20834;-68
2022/03/05 06:39:18;;;;;;;22.60;13.90;;;1.80;99.90;;;;;;5020529;28;20417;-69
2022/03/05 06:41:44;;;;;;;26.50;13.13;;;1.80;99.90;;;;;;5022841;28;20237;-70
2022/03/05 06:44:09;;;;;;;25.33;14.00;;;1.80;99.90;;;;;;5022378;28;20549;-69
2022/03/05 06:46:35;;;;;;;23.57;12.30;;;1.80;99.90;;;;;;5022695;28;20206;-69
2022/03/05 06:49:00;;;;;;;22.97;13.90;;;1.80;99.90;;;;;;5022887;28;20206;-70
2022/03/05 06:51:25;;;;;;;24.43;14.83;;;1.80;99.90;;;;;;5022245;28;20195;-70
2022/03/05 06:53:51;;;;;;;23.70;13.10;;;1.80;99.90;;;;;;5022671;28;20184;-68
2022/03/05 06:56:16;;;;;;;27.17;13.70;;;1.80;99.90;;;;;;5023913;28;20176;-69
2022/03/05 06:58:42;;;;;;;20.23;13.63;;;1.90;99.90;;;;;;5024273;28;20191;-70
2022/03/05 07:01:08;;;;;;;24.30;13.83;;;2.00;99.90;;;;;;5005790;28;20207;-70
2022/03/05 07:03:33;;;;;;;24.63;13.20;;;2.00;99.90;;;;;;5032425;28;20184;-71
2022/03/05 07:05:58;;;;;;;27.47;15.27;;;1.90;99.90;;;;;;5041535;28;20179;-70
2022/03/05 07:08:24;;;;;;;23.10;12.63;;;1.90;99.90;;;;;;5054276;28;20243;-70
2022/03/05 07:10:49;;;;;;;26.83;14.00;;;2.00;99.90;;;;;;5054387;28;20219;-69
2022/03/05 07:13:15;;;;;;;27.90;13.77;;;2.00;99.90;;;;;;5038572;28;20164;-68
2022/03/05 07:15:41;;;;;;;24.80;14.70;;;2.10;99.90;;;;;;5040159;28;20178;-67
2022/03/05 07:18:06;;;;;;;21.53;13.40;;;2.20;99.90;;;;;;5037794;28;20183;-70
2022/03/05 07:20:32;;;;;;;24.53;13.40;;;2.30;99.90;;;;;;5047285;28;20198;-72
2022/03/05 07:22:57;;;;;;;23.53;12.60;;;2.20;99.90;;;;;;5054954;28;20175;-70
2022/03/05 07:25:23;;;;;;;22.90;13.60;;;2.30;99.90;;;;;;5055083;28;20203;-71
2022/03/05 07:27:49;;;;;;;25.43;13.27;;;2.20;99.90;;;;;;5054945;28;20218;-70
2022/03/05 07:30:14;;;;;;;24.13;12.80;;;2.30;99.90;;;;;;5055245;28;20437;-69
2022/03/05 07:32:40;;;;;;;26.03;13.77;;;2.40;99.90;;;;;;5053914;28;20171;-71
2022/03/05 07:35:06;;;;;;;23.90;13.10;;;2.40;99.90;;;;;;5056610;28;20226;-67
2022/03/05 07:37:32;;;;;;;22.90;13.27;;;2.40;99.90;;;;;;5034394;28;20176;-70
2022/03/05 07:39:58;;;;;;;25.30;14.47;;;2.40;99.90;;;;;;5019428;28;20458;-70
2022/03/05 07:42:23;;;;;;;24.37;14.40;;;2.50;99.90;;;;;;5000549;28;20423;-69
2022/03/05 07:44:49;;;;;;;23.57;13.27;;;2.60;99.90;;;;;;5018092;28;20174;-69
2022/03/05 07:47:15;;;;;;;23.80;13.80;;;2.60;99.90;;;;;;5018439;28;20185;-70
2022/03/05 07:49:40;;;;;;;24.07;13.27;;;2.60;99.90;;;;;;5021562;28;20203;-69
2022/03/05 07:52:06;;;;;;;22.93;13.47;;;2.70;99.90;;;;;;5015781;28;20703;-70
2022/03/05 07:54:32;;;;;;;21.10;14.20;;;2.80;99.90;;;;;;5026637;28;20219;-69
2022/03/05 07:56:57;;;;;;;22.70;12.50;;;2.80;99.90;;;;;;5028917;28;20273;-71
2022/03/05 07:59:23;;;;;;;23.30;12.90;;;2.90;99.90;;;;;;5030165;28;20575;-70
2022/03/05 08:01:48;;;;;;;21.60;12.53;;;3.00;99.90;;;;;;5025965;28;20223;-70
2022/03/05 08:04:14;;;;;;;21.77;12.47;;;3.00;99.90;;;;;;5024941;28;20232;-71
2022/03/05 08:06:40;;;;;;;22.33;14.53;;;3.00;99.90;;;;;;5037863;28;20290;-69
2022/03/05 08:09:06;;;;;;;23.63;12.47;;;3.10;99.90;;;;;;5038467;28;20202;-71
2022/03/05 08:11:31;;;;;;;22.73;13.10;;;3.10;99.90;;;;;;5027808;28;21185;-68
2022/03/05 08:13:57;;;;;;;21.20;13.33;;;3.20;99.90;;;;;;5018771;28;20227;-70
2022/03/05 08:16:22;;;;;;;21.53;13.27;;;3.30;99.90;;;;;;5018500;28;20225;-69
2022/03/05 08:18:48;;;;;;;21.87;13.07;;;3.40;99.90;;;;;;5018156;28;20181;-69
2022/03/05 08:21:13;;;;;;;20.63;13.03;;;3.50;99.90;;;;;;5018195;28;20694;-69
2022/03/05 08:23:39;;;;;;;21.27;11.63;;;3.60;99.90;;;;;;5016093;28;20643;-70
2022/03/05 08:26:10;;;;;;;23.27;14.20;;;3.70;99.90;;;;;;5034233;28;20698;-70
2022/03/05 08:28:36;;;;;;;22.37;12.93;;;3.80;99.90;;;;;;5017499;28;20205;-70
2022/03/05 08:31:01;;;;;;;23.10;12.80;;;3.80;99.80;;;;;;5033670;28;20959;-70
2022/03/05 08:33:28;;;;;;;23.50;12.40;;;3.90;99.80;;;;;;5034148;28;20203;-69
2022/03/05 08:35:54;;;;;;;24.33;12.73;;;4.00;99.60;;;;;;5000240;28;20206;-70
2022/03/05 08:38:19;;;;;;;24.80;12.73;;;4.20;99.20;;;;;;5034227;28;20449;-71
2022/03/05 08:40:45;;;;;;;19.57;12.13;;;4.30;98.90;;;;;;5034510;28;20305;-71
2022/03/05 08:43:10;;;;;;;21.93;13.00;;;4.50;98.50;;;;;;5033814;28;20568;-69
2022/03/05 08:45:36;;;;;;;21.67;13.60;;;4.50;98.20;;;;;;5016395;28;20622;-68
2022/03/05 08:48:02;;;;;;;21.60;13.03;;;4.70;98.00;;;;;;5011607;28;20250;-71
2022/03/05 08:50:27;;;;;;;21.50;12.50;;;4.80;97.70;;;;;;5014946;28;20190;-70
2022/03/05 08:52:53;;;;;;;21.07;11.80;;;4.80;97.00;;;;;;5015021;28;20675;-69
2022/03/05 08:55:18;;;;;;;18.73;12.00;;;4.80;96.70;;;;;;5015285;28;20182;-71
2022/03/05 08:57:44;;;;;;;22.93;12.07;;;4.90;96.50;;;;;;5015319;28;20579;-71
2022/03/05 09:00:13;;;;;;;19.70;12.40;;;4.90;96.20;;;;;;5015728;28;20195;-71
2022/03/05 09:02:39;;;;;;;18.80;11.97;;;5.00;96.00;;;;;;5014497;28;20417;-71
2022/03/05 09:05:05;;;;;;;19.93;12.30;;;5.00;95.90;;;;;;5013888;28;21169;-71
2022/03/05 09:07:31;;;;;;;20.90;11.17;;;5.10;95.90;;;;;;5014415;28;20203;-71
2022/03/05 09:09:57;;;;;;;18.63;12.03;;;5.20;95.70;;;;;;5013863;28;20461;-71
2022/03/05 09:12:22;;;;;;;18.50;11.50;;;5.30;95.10;;;;;;5031696;28;20910;-70
2022/03/05 09:14:48;;;;;;;19.33;12.00;;;5.30;94.80;;;;;;5033729;28;20405;-70
2022/03/05 09:17:15;;;;;;;19.57;13.00;;;5.50;94.90;;;;;;5033027;28;20190;-68
2022/03/05 09:19:40;;;;;;;18.83;12.33;;;5.60;94.80;;;;;;5030920;28;20445;-71
2022/03/05 09:22:09;;;;;;;18.93;11.17;;;5.70;94.50;;;;;;5033428;28;20413;-70
2022/03/05 09:24:34;;;;;;;18.90;11.20;;;5.80;93.60;;;;;;5032985;28;20178;-69
2022/03/05 09:27:00;;;;;;;21.40;12.47;;;5.90;93.40;;;;;;5032715;28;20413;-71
2022/03/05 09:29:25;;;;;;;18.93;12.47;;;5.90;93.30;;;;;;5032571;28;20213;-71
2022/03/05 09:31:51;;;;;;;16.73;11.60;;;6.10;93.40;;;;;;5032261;28;20550;-70
2022/03/05 09:34:17;;;;;;;18.00;12.10;;;6.20;93.20;;;;;;5032936;28;20225;-70
2022/03/05 09:36:42;;;;;;;17.97;11.80;;;6.30;93.00;;;;;;5033624;28;20438;-70
2022/03/05 09:39:09;;;;;;;18.93;12.47;;;6.40;92.60;;;;;;5034623;28;20175;-70
2022/03/05 09:41:38;;;;;;;17.63;11.57;;;6.50;92.60;;;;;;5032945;28;20222;-69
2022/03/05 09:44:04;;;;;;;21.47;12.03;;;6.70;92.20;;;;;;5033213;28;20433;-69
2022/03/05 09:46:30;;;;;;;17.10;13.00;;;6.80;92.00;;;;;;5032768;28;20409;-70
2022/03/05 09:48:58;;;;;;;18.57;13.73;;;6.90;92.00;;;;;;5032355;28;20520;-69
2022/03/05 09:51:23;;;;;;;21.37;12.97;;;7.00;91.20;;;;;;5032182;28;20557;-69
2022/03/05 09:53:53;;;;;;;15.53;11.40;;;7.00;91.30;;;;;;5032692;28;20423;-71
2022/03/05 09:56:18;;;;;;;18.77;12.07;;;7.10;91.30;;;;;;5032933;28;20263;-69
2022/03/05 09:58:44;;;;;;;20.43;11.40;;;7.00;90.70;;;;;;5032590;28;20922;-70
2022/03/05 10:01:10;;;;;;;17.47;11.73;;;7.10;90.70;;;;;;5032352;28;20202;-69
2022/03/05 10:03:52;;;;;;;20.23;11.90;;;7.20;90.70;;;;;;5032595;28;20229;-69
2022/03/05 10:06:28;;;;;;;17.40;11.73;;;7.30;90.30;;;;;;5034016;28;20270;-69
2022/03/05 10:08:57;;;;;;;18.90;12.77;;;7.40;90.20;;;;;;5035651;28;20859;-69
2022/03/05 10:11:39;;;;;;;22.27;13.50;;;7.60;90.20;;;;;;5034380;28;20445;-70
2022/03/05 10:14:22;;;;;;;18.40;11.83;;;7.70;89.70;;;;;;5034452;28;20424;-70
2022/03/05 10:16:48;;;;;;;18.83;12.10;;;7.90;88.00;;;;;;5034660;28;20427;-70
2022/03/05 10:19:21;;;;;;;14.60;10.40;;;8.00;86.80;;;;;;5034579;28;20410;-69
2022/03/05 10:22:03;;;;;;;16.40;11.03;;;8.10;86.00;;;;;;5034974;28;20185;-71
2022/03/05 10:24:37;;;;;;;16.13;10.93;;;8.20;85.40;;;;;;5035175;28;20425;-70
2022/03/05 10:27:05;;;;;;;17.57;11.37;;;8.30;83.90;;;;;;5035390;28;20414;-69
2022/03/05 10:29:35;;;;;;;17.33;11.00;;;8.40;83.00;;;;;;5035622;28;20668;-70
2022/03/05 10:32:10;;;;;;;15.17;10.67;;;8.50;82.40;;;;;;5034619;28;20411;-69
2022/03/05 10:34:42;;;;;;;17.17;10.93;;;8.50;81.20;;;;;;5034514;28;20819;-70
2022/03/05 10:37:08;;;;;;;16.17;10.90;;;8.50;80.00;;;;;;5034912;28;20501;-69
2022/03/05 10:39:34;;;;;;;15.87;10.60;;;8.50;80.30;;;;;;5034935;28;20444;-69
2022/03/05 10:42:00;;;;;;;14.73;10.00;;;8.60;79.40;;;;;;5036229;28;20413;-70
2022/03/05 10:44:25;;;;;;;13.07;9.93;;;8.60;78.70;;;;;;5038083;23;20580;-69
2022/03/05 10:46:58;;;;;;;18.00;12.23;;;8.70;78.30;;;;;;5032020;28;20445;-69
2022/03/05 10:49:31;;;;;;;15.93;10.37;;;8.60;77.10;;;;;;5032152;28;20213;-69
2022/03/05 10:51:59;;;;;;;17.03;10.60;;;8.60;77.50;;;;;;5031820;28;20934;-69
2022/03/05 10:54:30;;;;;;;15.73;10.50;;;8.80;77.30;;;;;;5021490;28;20438;-69
2022/03/05 10:57:10;;;;;;;14.13;10.53;;;8.90;75.10;;;;;;5012866;28;20421;-67
2022/03/05 10:59:39;;;;;;;16.63;11.17;;;8.90;74.80;;;;;;5012580;28;20772;-69
2022/03/05 11:02:09;;;;;;;16.67;11.30;;;9.00;75.30;;;;;;5011912;28;20437;-69
2022/03/05 11:04:36;;;;;;;15.73;11.17;;;8.90;75.00;;;;;;5012007;28;20878;-69
2022/03/05 11:07:02;;;;;;;19.33;11.60;;;8.90;75.30;;;;;;5011746;28;20415;-69
2022/03/05 11:09:29;;;;;;;14.00;9.63;;;9.10;75.80;;;;;;5011947;28;20878;-67
2022/03/05 11:11:57;;;;;;;13.93;9.90;;;9.20;75.00;;;;;;5014755;28;20725;-69
2022/03/05 11:14:24;;;;;;;17.60;11.40;;;9.30;74.40;;;;;;5015591;28;20448;-68
2022/03/05 11:16:50;;;;;;;17.30;11.57;;;9.40;74.00;;;;;;5016049;28;20418;-68
2022/03/05 11:19:16;;;;;;;14.77;10.17;;;9.30;74.40;;;;;;5015817;28;20418;-69
2022/03/05 11:21:41;;;;;;;15.50;10.77;;;9.40;74.70;;;;;;5015534;28;20190;-69
2022/03/05 11:24:11;;;;;;;18.80;10.80;;;9.50;73.50;;;;;;5015432;28;20465;-69
2022/03/05 11:26:38;;;;;;;16.27;10.53;;;9.50;72.50;;;;;;5015726;28;20179;-68
2022/03/05 11:29:04;;;;;;;15.97;10.20;;;9.60;71.20;;;;;;5015432;28;20787;-69
2022/03/05 11:31:32;;;;;;;12.60;10.43;;;9.60;69.10;;;;;;5015219;28;20426;-69
2022/03/05 11:34:29;;;;;;;15.70;10.90;;;9.60;69.10;;;;;;5015305;28;20540;-69
2022/03/05 11:36:54;;;;;;;16.50;11.63;;;9.60;69.00;;;;;;4976617;28;20436;-67
2022/03/05 11:39:31;;;;;;;11.87;9.40;;;9.70;68.30;;;;;;4993183;28;20423;-69
2022/03/05 11:42:02;;;;;;;14.53;9.87;;;9.60;68.80;;;;;;4993418;28;20200;-68
2022/03/05 11:44:39;;;;;;;17.80;10.70;;;9.60;68.40;;;;;;4991222;28;20503;-68
2022/03/05 11:47:32;;;;;;;15.00;11.10;;;9.60;67.50;;;;;;4975570;28;20438;-69
2022/03/05 11:50:00;;;;;;;15.43;10.30;;;9.60;68.10;;;;;;4991364;28;20454;-68
2022/03/05 11:52:38;;;;;;;14.30;9.70;;;9.60;68.10;;;;;;4974707;28;20894;-67
2022/03/05 11:55:19;;;;;;;16.00;10.83;;;9.70;68.00;;;;;;4991557;28;20836;-68
2022/03/05 11:57:50;;;;;;;15.73;10.80;;;9.60;67.10;;;;;;4991223;28;20450;-68
2022/03/05 12:00:19;;;;;;;14.70;10.60;;;9.70;67.50;;;;;;4993257;28;20845;-70
2022/03/05 12:02:47;;;;;;;15.60;10.67;;;9.70;67.90;;;;;;4993185;28;20430;-68
2022/03/05 12:05:44;;;;;;;16.90;11.20;;;9.70;68.10;;;;;;4977025;28;20857;-69
2022/03/05 12:08:35;;;;;;;13.70;10.50;;;9.50;66.20;;;;;;4993551;28;20523;-70
2022/03/05 12:11:11;;;;;;;13.60;9.70;;;9.60;67.20;;;;;;4992747;28;20415;-71
2022/03/05 12:13:44;;;;;;;14.53;9.63;;;9.70;73.20;;;;;;5007098;28;20533;-69
2022/03/05 12:16:24;;;;;;;16.93;10.93;;;9.70;71.20;;;;;;5015222;28;20441;-69
2022/03/05 12:18:50;;;;;;;15.83;11.57;;;9.60;67.20;;;;;;5015297;28;20637;-70
2022/03/05 12:21:27;;;;;;;15.53;10.70;;;9.70;67.30;;;;;;5014870;28;20500;-68
2022/03/05 12:24:09;;;;;;;16.30;11.00;;;9.60;65.90;;;;;;5014844;28;20438;-69
2022/03/05 12:26:51;;;;;;;12.30;9.57;;;9.40;64.90;;;;;;5015212;28;20411;-68
2022/03/05 12:29:17;;;;;;;15.63;10.70;;;9.40;65.80;;;;;;5014784;28;20449;-68
2022/03/05 12:31:44;;;;;;;14.63;10.50;;;9.50;65.70;;;;;;5009451;28;20998;-67
2022/03/05 12:34:10;;;;;;;17.87;11.13;;;9.50;65.40;;;;;;5014066;28;20199;-69
2022/03/05 12:36:44;;;;;;;13.20;10.83;;;9.50;64.40;;;;;;5014043;28;20457;-69
2022/03/05 12:39:10;;;;;;;13.00;9.27;;;9.60;64.40;;;;;;5014084;28;20439;-67
2022/03/05 12:41:35;;;;;;;12.90;10.47;;;9.60;64.00;;;;;;5012430;28;20488;-68
2022/03/05 12:44:01;;;;;;;14.60;10.37;;;9.60;64.60;;;;;;5013952;28;20985;-68